createdAt,value
2018-07-06T00:01:56.876Z,17.23
2018-07-06T00:04:36.489Z,17.22
2018-07-06T00:07:16.323Z,17.29
2018-07-06T00:09:56.038Z,17.33
2018-07-06T00:12:35.672Z,17.26
2018-07-06T00:15:15.317Z,17.18
2018-07-06T00:17:54.946Z,17.09
2018-07-06T00:20:34.680Z,17.04
2018-07-06T00:23:14.444Z,17.10
2018-07-06T00:25:54.126Z,16.97
2018-07-06T00:28:33.676Z,16.90
2018-07-06T00:31:13.221Z,16.77
2018-07-06T00:33:52.823Z,16.74
2018-07-06T00:36:32.581Z,16.81
2018-07-06T00:39:12.177Z,16.83
2018-07-06T00:41:52.420Z,16.81
2018-07-06T00:44:32.018Z,16.83
2018-07-06T00:47:11.926Z,16.82
2018-07-06T00:49:51.697Z,16.74
2018-07-06T00:52:31.374Z,16.69
2018-07-06T00:55:11.041Z,16.64
2018-07-06T00:57:52.715Z,16.58
2018-07-06T01:00:32.223Z,16.60
2018-07-06T01:03:12.201Z,16.53
2018-07-06T01:05:52.123Z,16.50
2018-07-06T01:08:32.368Z,16.43
2018-07-06T01:11:12.230Z,16.40
2018-07-06T01:13:51.837Z,16.42
2018-07-06T01:16:31.271Z,16.38
2018-07-06T01:19:10.991Z,16.36
2018-07-06T01:21:50.636Z,16.32
2018-07-06T01:24:30.528Z,16.29
2018-07-06T01:27:10.204Z,16.23
2018-07-06T01:29:49.897Z,16.11
2018-07-06T01:32:29.533Z,16.00
2018-07-06T01:35:09.230Z,15.95
2018-07-06T01:37:49.173Z,15.96
2018-07-06T01:40:29.092Z,15.88
2018-07-06T01:43:09.466Z,15.90
2018-07-06T01:45:49.462Z,15.87
2018-07-06T01:48:29.270Z,15.85
2018-07-06T01:51:09.134Z,15.78
2018-07-06T01:53:49.724Z,15.73
2018-07-06T01:56:29.459Z,15.76
2018-07-06T01:59:09.022Z,15.76
2018-07-06T02:01:49.317Z,15.73
2018-07-06T02:04:28.870Z,15.71
2018-07-06T02:07:08.964Z,15.68
2018-07-06T02:09:49.481Z,15.65
2018-07-06T02:12:29.391Z,15.62
2018-07-06T02:15:09.210Z,15.59
2018-07-06T02:17:49.561Z,15.52
2018-07-06T02:20:29.672Z,15.43
2018-07-06T02:23:09.372Z,15.40
2018-07-06T02:25:49.665Z,15.30
2018-07-06T02:28:29.341Z,15.27
2018-07-06T02:31:09.166Z,15.18
2018-07-06T02:33:49.125Z,15.19
2018-07-06T02:36:28.738Z,15.05
2018-07-06T02:39:08.571Z,14.98
2018-07-06T02:41:48.548Z,14.94
2018-07-06T02:44:28.376Z,14.94
2018-07-06T02:47:07.977Z,14.90
2018-07-06T02:49:47.767Z,14.88
2018-07-06T02:52:27.277Z,14.85
2018-07-06T02:55:07.414Z,14.84
2018-07-06T02:57:46.973Z,14.89
2018-07-06T03:00:27.043Z,14.86
2018-07-06T03:03:06.527Z,14.83
2018-07-06T03:05:46.432Z,14.81
2018-07-06T03:08:25.949Z,14.77
2018-07-06T03:11:05.640Z,14.78
2018-07-06T03:13:45.363Z,14.78
2018-07-06T03:16:25.324Z,14.72
2018-07-06T03:19:04.720Z,14.69
2018-07-06T03:21:44.274Z,14.75
2018-07-06T03:24:24.092Z,14.73
2018-07-06T03:27:03.929Z,14.76
2018-07-06T03:29:43.378Z,14.76
2018-07-06T03:32:23.083Z,14.75
2018-07-06T03:35:03.149Z,14.71
2018-07-06T03:37:42.697Z,14.70
2018-07-06T03:40:22.528Z,14.61
2018-07-06T03:43:01.963Z,14.59
2018-07-06T03:45:41.777Z,14.64
2018-07-06T03:48:21.587Z,14.63
2018-07-06T03:51:01.302Z,14.69
2018-07-06T03:53:41.068Z,14.70
2018-07-06T03:56:20.721Z,14.70
2018-07-06T03:59:00.584Z,14.69
2018-07-06T04:01:40.254Z,14.60
2018-07-06T04:04:19.946Z,14.55
2018-07-06T04:06:59.718Z,14.61
2018-07-06T04:09:39.509Z,14.61
2018-07-06T04:12:19.724Z,14.60
2018-07-06T04:14:59.411Z,14.59
2018-07-06T04:17:39.172Z,14.62
2018-07-06T04:20:18.968Z,14.68
2018-07-06T04:22:58.585Z,14.71
2018-07-06T04:25:38.425Z,14.72
2018-07-06T04:28:18.157Z,14.83
2018-07-06T04:30:58.077Z,14.95
2018-07-06T04:33:38.158Z,14.98
2018-07-06T04:36:18.506Z,15.12
2018-07-06T04:38:58.331Z,15.10
2018-07-06T04:41:38.107Z,15.17
2018-07-06T04:44:18.635Z,15.24
2018-07-06T04:46:58.407Z,15.34
2018-07-06T04:49:38.107Z,15.31
2018-07-06T04:52:18.106Z,15.42
2018-07-06T04:54:57.579Z,15.51
2018-07-06T04:57:37.440Z,15.68
2018-07-06T05:00:17.068Z,15.77
2018-07-06T05:02:56.741Z,15.85
2018-07-06T05:05:36.333Z,15.93
2018-07-06T05:08:16.282Z,15.98
2018-07-06T05:10:55.862Z,16.21
2018-07-06T05:13:35.260Z,16.24
2018-07-06T05:16:15.057Z,16.25
2018-07-06T05:18:54.865Z,16.53
2018-07-06T05:21:34.518Z,16.40
2018-07-06T05:24:14.865Z,16.28
2018-07-06T05:26:54.606Z,16.61
2018-07-06T05:29:34.926Z,16.71
2018-07-06T05:32:14.721Z,16.56
2018-07-06T05:34:54.293Z,16.96
2018-07-06T05:37:34.045Z,17.00
2018-07-06T05:40:13.688Z,17.25
2018-07-06T05:42:53.458Z,17.35
2018-07-06T05:45:33.031Z,17.28
2018-07-06T05:48:12.799Z,17.28
2018-07-06T05:50:52.494Z,17.42
2018-07-06T05:53:32.430Z,17.32
2018-07-06T05:56:12.961Z,17.39
2018-07-06T05:58:52.559Z,17.40
2018-07-06T06:01:32.203Z,17.24
2018-07-06T06:04:11.904Z,17.15
2018-07-06T06:06:51.554Z,17.29
2018-07-06T06:09:21.014Z,17.27
2018-07-06T06:11:50.352Z,17.68
2018-07-06T06:14:19.946Z,17.49
2018-07-06T06:16:48.821Z,17.22
2018-07-06T06:19:17.846Z,17.33
2018-07-06T06:21:46.359Z,17.39
2018-07-06T06:24:14.871Z,17.47
2018-07-06T06:26:43.455Z,17.75
2018-07-06T06:29:12.165Z,17.65
2018-07-06T06:31:41.252Z,17.81
2018-07-06T06:34:10.074Z,17.93
2018-07-06T06:36:38.998Z,17.94
2018-07-06T06:39:07.683Z,18.21
2018-07-06T06:41:36.233Z,17.93
2018-07-06T06:44:05.000Z,18.26
2018-07-06T06:46:33.758Z,18.60
2018-07-06T06:49:02.401Z,18.15
2018-07-06T06:51:31.077Z,18.03
2018-07-06T06:53:59.737Z,17.90
2018-07-06T06:56:32.367Z,18.08
2018-07-06T06:59:01.230Z,17.79
2018-07-06T07:01:29.836Z,18.02
2018-07-06T07:03:59.006Z,18.04
2018-07-06T07:06:27.857Z,18.34
2018-07-06T07:08:56.521Z,18.32
2018-07-06T07:11:25.618Z,17.86
2018-07-06T07:13:54.628Z,18.25
2018-07-06T07:16:23.353Z,18.08
2018-07-06T07:18:52.482Z,18.08
2018-07-06T07:21:21.287Z,18.01
2018-07-06T07:23:50.946Z,18.33
2018-07-06T07:26:20.126Z,17.93
2018-07-06T07:28:48.795Z,18.27
2018-07-06T07:31:17.809Z,18.38
2018-07-06T07:33:47.258Z,18.35
2018-07-06T07:36:16.023Z,18.15
2018-07-06T07:38:44.782Z,18.40
2018-07-06T07:41:13.392Z,17.92
2018-07-06T07:43:42.781Z,18.16
2018-07-06T07:46:11.373Z,18.41
2018-07-06T07:48:40.945Z,18.39
2018-07-06T07:51:57.864Z,18.03
2018-07-06T07:54:28.521Z,17.97
2018-07-06T07:56:58.478Z,18.29
2018-07-06T07:59:28.681Z,18.48
2018-07-06T08:02:19.122Z,18.76
2018-07-06T08:04:48.837Z,19.15
2018-07-06T08:07:17.822Z,19.21
2018-07-06T08:09:46.477Z,19.04
2018-07-06T08:12:15.228Z,18.59
2018-07-06T08:14:44.009Z,19.02
2018-07-06T08:17:12.839Z,18.90
2018-07-06T08:19:41.999Z,18.66
2018-07-06T08:22:10.729Z,18.81
2018-07-06T08:24:57.929Z,19.19
2018-07-06T08:27:26.493Z,19.22
2018-07-06T08:29:54.944Z,19.06
2018-07-06T08:32:23.404Z,19.46
2018-07-06T08:35:03.006Z,19.37
2018-07-06T08:37:45.798Z,19.56
2018-07-06T08:40:14.446Z,19.25
2018-07-06T08:42:44.227Z,19.50
2018-07-06T08:45:13.064Z,19.54
2018-07-06T08:47:41.835Z,19.78
2018-07-06T08:50:10.691Z,20.06
2018-07-06T08:52:40.045Z,19.83
2018-07-06T08:55:08.542Z,19.72
2018-07-06T08:57:37.818Z,19.68
2018-07-06T09:00:07.856Z,20.28
2018-07-06T09:02:37.743Z,20.73
2018-07-06T09:05:06.682Z,21.00
2018-07-06T09:07:35.185Z,21.17
2018-07-06T09:10:03.965Z,20.47
2018-07-06T09:12:32.391Z,20.80
2018-07-06T09:15:01.916Z,21.13
2018-07-06T09:17:30.395Z,21.19
2018-07-06T09:19:59.836Z,20.33
2018-07-06T09:22:28.238Z,21.02
2018-07-06T09:25:00.041Z,20.26
2018-07-06T09:27:28.477Z,19.82
2018-07-06T09:29:57.053Z,20.72
2018-07-06T09:32:25.433Z,19.49
2018-07-06T09:34:53.918Z,19.91
2018-07-06T09:37:22.341Z,20.41
2018-07-06T09:40:04.842Z,21.16
2018-07-06T09:42:33.498Z,21.47
2018-07-06T09:45:01.857Z,20.37
2018-07-06T09:47:30.317Z,20.52
2018-07-06T09:49:58.833Z,20.41
2018-07-06T09:52:27.495Z,20.12
2018-07-06T09:54:56.019Z,20.88
2018-07-06T09:57:24.562Z,21.72
2018-07-06T09:59:53.435Z,22.13
2018-07-06T10:02:22.009Z,21.30
2018-07-06T10:04:50.587Z,22.23
2018-07-06T10:07:19.047Z,22.56
2018-07-06T10:09:48.234Z,22.41
2018-07-06T10:12:16.806Z,21.77
2018-07-06T10:14:45.286Z,22.57
2018-07-06T10:17:13.764Z,21.59
2018-07-06T10:19:42.254Z,21.58
2018-07-06T10:22:10.701Z,21.50
2018-07-06T10:30:38.539Z,21.17
2018-07-06T10:33:08.842Z,21.22
2018-07-06T10:35:37.281Z,21.48
2018-07-06T10:38:05.923Z,22.35
2018-07-06T10:40:34.402Z,22.13
2018-07-06T10:43:02.840Z,22.38
2018-07-06T10:45:31.401Z,22.06
2018-07-06T10:47:59.870Z,22.51
2018-07-06T10:50:28.375Z,21.70
2018-07-06T10:52:56.850Z,22.50
2018-07-06T10:55:25.413Z,22.69
2018-07-06T10:57:54.071Z,21.92
2018-07-06T11:00:23.682Z,21.74
2018-07-06T11:02:52.149Z,22.36
2018-07-06T11:05:20.739Z,22.08
2018-07-06T11:07:49.287Z,22.25
2018-07-06T11:10:17.768Z,22.55
2018-07-06T11:12:46.209Z,22.87
2018-07-06T11:15:14.654Z,22.57
2018-07-06T11:17:43.119Z,22.87
2018-07-06T11:20:11.585Z,23.05
2018-07-06T11:22:40.023Z,23.35
2018-07-06T11:25:08.544Z,23.16
2018-07-06T11:27:37.045Z,22.51
2018-07-06T11:30:05.644Z,22.40
2018-07-06T11:32:34.082Z,22.72
2018-07-06T11:35:02.564Z,22.98
2018-07-06T11:37:31.073Z,22.64
2018-07-06T11:39:59.533Z,23.16
2018-07-06T11:42:27.966Z,23.25
2018-07-06T11:44:56.542Z,23.39
2018-07-06T11:47:24.961Z,23.20
2018-07-06T11:49:53.454Z,23.03
2018-07-06T11:52:21.959Z,23.44
2018-07-06T11:54:50.384Z,23.47
2018-07-06T11:57:18.846Z,24.02
2018-07-06T11:59:47.281Z,24.24
2018-07-06T12:02:15.833Z,24.80
2018-07-06T12:04:44.307Z,24.93
2018-07-06T12:07:12.767Z,24.58
2018-07-06T12:09:41.229Z,24.66
2018-07-06T12:12:09.724Z,25.02
2018-07-06T12:14:38.269Z,24.49
2018-07-06T12:17:07.860Z,23.72
2018-07-06T12:19:36.311Z,24.98
2018-07-06T12:22:05.258Z,24.93
2018-07-06T12:24:33.679Z,24.96
2018-07-06T12:27:02.165Z,24.55
2018-07-06T12:29:30.646Z,25.36
2018-07-06T12:31:59.102Z,25.53
2018-07-06T12:34:27.533Z,25.09
2018-07-06T12:36:56.239Z,25.88
2018-07-06T12:39:24.722Z,25.88
2018-07-06T12:41:53.170Z,26.51
2018-07-06T12:44:21.629Z,26.65
2018-07-06T12:46:50.106Z,27.09
2018-07-06T12:49:18.549Z,25.04
2018-07-06T12:51:50.705Z,26.37
2018-07-06T12:54:19.109Z,26.99
2018-07-06T12:56:48.274Z,26.87
2018-07-06T12:59:16.794Z,27.73
2018-07-06T13:01:45.345Z,27.02
2018-07-06T13:04:14.021Z,26.94
2018-07-06T13:06:42.489Z,27.47
2018-07-06T13:09:10.954Z,26.02
2018-07-06T13:11:39.850Z,26.40
2018-07-06T13:14:08.369Z,27.02
2018-07-06T13:16:36.900Z,29.00
2018-07-06T13:19:05.407Z,30.03
2018-07-06T13:21:33.941Z,29.96
2018-07-06T13:24:02.338Z,29.00
2018-07-06T13:26:30.838Z,27.74
2018-07-06T13:28:59.249Z,30.10
2018-07-06T13:31:27.674Z,31.03
2018-07-06T13:33:56.174Z,30.58
2018-07-06T13:36:24.488Z,31.27
2018-07-06T13:38:52.881Z,30.90
2018-07-06T13:41:21.351Z,31.74
2018-07-06T13:43:49.767Z,31.32
2018-07-06T13:46:18.184Z,29.82
2018-07-06T13:48:46.700Z,27.64
2018-07-06T13:51:15.206Z,28.48
2018-07-06T13:53:43.745Z,28.58
2018-07-06T13:56:12.297Z,28.44
2018-07-06T13:58:40.826Z,28.04
2018-07-06T14:01:09.283Z,27.01
2018-07-06T14:03:37.879Z,28.76
2018-07-06T14:06:06.437Z,29.70
2018-07-06T14:08:35.081Z,29.86
2018-07-06T14:11:03.539Z,30.00
2018-07-06T14:13:32.067Z,30.15
2018-07-06T14:16:00.506Z,28.81
2018-07-06T14:18:29.077Z,29.20
2018-07-06T14:20:57.523Z,29.63
2018-07-06T14:23:26.050Z,27.88
2018-07-06T14:25:54.534Z,28.84
2018-07-06T14:28:23.071Z,29.99
2018-07-06T14:30:51.469Z,30.56
2018-07-06T14:33:20.078Z,30.08
2018-07-06T14:35:48.576Z,29.86
2018-07-06T14:38:17.102Z,29.23
2018-07-06T14:40:45.581Z,27.81
2018-07-06T14:43:14.666Z,27.67
2018-07-06T14:45:43.089Z,26.99
2018-07-06T14:48:11.551Z,26.87
2018-07-06T14:50:40.014Z,26.48
2018-07-06T14:53:08.467Z,27.56
2018-07-06T14:55:36.858Z,26.88
2018-07-06T14:58:05.873Z,27.38
2018-07-06T15:00:34.287Z,26.95
2018-07-06T15:03:02.741Z,26.67
2018-07-06T15:05:31.154Z,27.01
2018-07-06T15:07:59.574Z,29.48
2018-07-06T15:10:28.015Z,29.53
2018-07-06T15:12:56.461Z,28.52
2018-07-06T15:15:25.218Z,27.81
2018-07-06T15:17:53.685Z,28.96
2018-07-06T15:20:22.273Z,29.05
2018-07-06T15:22:51.486Z,29.13
2018-07-06T15:25:19.870Z,28.92
2018-07-06T15:27:48.461Z,29.21
2018-07-06T15:30:16.969Z,30.81
2018-07-06T15:32:45.443Z,28.62
2018-07-06T15:35:13.838Z,30.36
2018-07-06T15:37:42.297Z,30.50
2018-07-06T15:40:10.702Z,28.92
2018-07-06T15:42:39.099Z,27.67
2018-07-06T15:45:07.613Z,27.02
2018-07-06T15:47:36.056Z,27.42
2018-07-06T15:50:04.601Z,27.08
2018-07-06T15:52:33.086Z,27.02
2018-07-06T15:55:01.506Z,27.17
2018-07-06T15:57:30.049Z,27.41
2018-07-06T15:59:58.475Z,27.17
2018-07-06T16:02:27.002Z,27.27
2018-07-06T16:04:55.435Z,26.81
2018-07-06T16:07:23.954Z,26.85
2018-07-06T16:09:52.433Z,26.63
2018-07-06T16:12:20.902Z,26.76
2018-07-06T16:14:49.398Z,26.61
2018-07-06T16:17:25.606Z,26.48
2018-07-06T16:19:54.282Z,26.54
2018-07-06T16:22:22.839Z,26.42
2018-07-06T16:24:51.485Z,26.64
2018-07-06T16:27:19.877Z,27.84
2018-07-06T16:29:48.357Z,28.49
2018-07-06T16:32:19.844Z,28.42
2018-07-06T16:34:49.246Z,27.84
2018-07-06T16:37:17.682Z,27.92
2018-07-06T16:39:46.333Z,27.53
2018-07-06T16:42:14.804Z,27.66
2018-07-06T16:44:43.281Z,27.56
2018-07-06T16:47:16.734Z,27.92
2018-07-06T16:49:45.343Z,28.18
2018-07-06T16:52:14.056Z,28.40
2018-07-06T16:54:42.965Z,29.33
2018-07-06T16:57:11.929Z,29.39
2018-07-06T16:59:42.442Z,28.19
2018-07-06T17:02:11.049Z,28.14
2018-07-06T17:04:39.517Z,27.81
2018-07-06T17:07:08.615Z,27.60
2018-07-06T17:09:37.361Z,27.02
2018-07-06T17:12:05.941Z,27.02
2018-07-06T17:14:34.536Z,27.37
2018-07-06T17:17:03.424Z,27.57
2018-07-06T17:19:31.896Z,28.09
2018-07-06T17:22:00.689Z,27.99
2018-07-06T17:24:29.181Z,27.95
2018-07-06T17:26:59.654Z,27.29
2018-07-06T17:29:28.290Z,27.26
2018-07-06T17:31:56.931Z,27.32
2018-07-06T17:34:25.599Z,26.98
2018-07-06T17:36:54.962Z,27.03
2018-07-06T17:39:23.496Z,26.68
2018-07-06T17:41:51.984Z,26.75
2018-07-06T17:44:20.537Z,26.94
2018-07-06T17:46:49.005Z,26.86
2018-07-06T17:49:17.615Z,26.74
2018-07-06T17:51:46.049Z,26.80
2018-07-06T17:54:14.586Z,26.73
2018-07-06T17:56:43.837Z,26.65
2018-07-06T17:59:15.520Z,27.29
2018-07-06T18:01:44.024Z,27.00
2018-07-06T18:04:12.647Z,27.05
2018-07-06T18:06:49.259Z,26.47
2018-07-06T18:09:18.662Z,26.81
2018-07-06T18:11:47.466Z,26.34
2018-07-06T18:14:16.202Z,25.93
2018-07-06T18:16:45.138Z,26.34
2018-07-06T18:19:13.646Z,26.67
2018-07-06T18:21:45.898Z,26.19
2018-07-06T18:24:14.749Z,26.01
2018-07-06T18:26:43.178Z,26.12
2018-07-06T18:29:11.826Z,26.04
2018-07-06T18:31:40.936Z,26.09
2018-07-06T18:34:09.639Z,25.99
2018-07-06T18:36:38.142Z,26.22
2018-07-06T18:39:08.347Z,25.64
2018-07-06T18:41:36.798Z,25.48
2018-07-06T18:44:05.329Z,25.05
2018-07-06T18:46:33.789Z,24.96
2018-07-06T18:49:02.634Z,24.78
2018-07-06T18:51:31.214Z,24.73
2018-07-06T18:54:00.591Z,24.65
2018-07-06T18:56:29.249Z,24.52
2018-07-06T18:58:58.605Z,24.39
2018-07-06T19:01:27.090Z,24.38
2018-07-06T19:03:57.005Z,24.25
2018-07-06T19:06:25.874Z,24.14
2018-07-06T19:09:12.905Z,24.05
2018-07-06T19:11:41.358Z,23.94
2018-07-06T19:14:09.889Z,23.88
2018-07-06T19:16:38.405Z,23.87
2018-07-06T19:19:06.918Z,23.76
2018-07-06T19:21:35.430Z,23.67
2018-07-06T19:24:03.978Z,23.59
2018-07-06T19:26:33.550Z,23.37
2018-07-06T19:29:02.074Z,23.45
2018-07-06T19:31:30.638Z,23.30
2018-07-06T19:33:59.228Z,23.26
2018-07-06T19:36:28.319Z,23.22
2018-07-06T19:38:56.833Z,23.12
2018-07-06T19:41:25.290Z,23.03
2018-07-06T19:43:53.810Z,22.95
2018-07-06T19:46:22.839Z,23.06
2018-07-06T19:48:51.381Z,22.97
2018-07-06T19:51:19.893Z,22.80
2018-07-06T19:53:48.343Z,22.69
2018-07-06T19:56:16.820Z,22.63
2018-07-06T19:58:45.331Z,22.37
2018-07-06T20:01:14.076Z,22.48
2018-07-06T20:03:42.605Z,22.62
2018-07-06T20:06:11.110Z,22.65
2018-07-06T20:08:39.910Z,22.67
2018-07-06T20:11:08.418Z,22.57
2018-07-06T20:13:37.214Z,22.49
2018-07-06T20:16:05.781Z,22.41
2018-07-06T20:18:34.245Z,22.37
2018-07-06T20:21:02.765Z,22.33
2018-07-06T20:23:31.260Z,22.18
2018-07-06T20:25:59.750Z,22.31
2018-07-06T20:28:28.262Z,22.12
2018-07-06T20:30:56.739Z,22.00
2018-07-06T20:33:25.201Z,22.08
2018-07-06T20:35:53.657Z,21.97
2018-07-06T20:38:22.097Z,22.10
2018-07-06T20:40:50.619Z,22.09
2018-07-06T20:43:19.059Z,22.04
2018-07-06T20:45:47.565Z,22.00
2018-07-06T20:48:16.037Z,21.94
2018-07-06T20:50:44.502Z,21.94
2018-07-06T20:53:13.010Z,21.85
2018-07-06T20:55:41.586Z,21.80
2018-07-06T20:58:10.084Z,21.72
2018-07-06T21:00:38.582Z,21.56
2018-07-06T21:03:07.020Z,21.46
2018-07-06T21:05:36.521Z,21.47
2018-07-06T21:08:05.016Z,21.38
2018-07-06T21:10:33.542Z,21.37
2018-07-06T21:13:01.953Z,21.25
2018-07-06T21:15:30.390Z,21.10
2018-07-06T21:17:58.818Z,20.96
2018-07-06T21:20:27.296Z,21.01
2018-07-06T21:22:55.709Z,21.16
2018-07-06T21:25:24.081Z,20.92
2018-07-06T21:27:52.527Z,21.03
2018-07-06T21:30:20.942Z,20.92
2018-07-06T21:32:49.505Z,20.88
2018-07-06T21:35:17.910Z,20.84
2018-07-06T21:37:46.382Z,20.79
2018-07-06T21:40:14.884Z,20.80
2018-07-06T21:42:43.372Z,20.72
2018-07-06T21:45:11.877Z,20.66
2018-07-06T21:47:40.366Z,20.53
2018-07-06T21:50:08.892Z,20.47
2018-07-06T21:52:37.318Z,20.39
2018-07-06T21:55:05.737Z,20.40
2018-07-06T21:57:34.460Z,20.28
2018-07-06T22:00:02.955Z,20.26
2018-07-06T22:02:31.853Z,20.10
2018-07-06T22:05:00.358Z,20.09
2018-07-06T22:07:28.802Z,20.04
2018-07-06T22:09:57.254Z,20.05
2018-07-06T22:12:25.685Z,20.05
2018-07-06T22:17:21.541Z,19.94
2018-07-06T22:19:49.975Z,19.76
2018-07-06T22:22:18.411Z,19.74
2018-07-06T22:24:46.783Z,19.59
2018-07-06T22:27:15.247Z,19.47
2018-07-06T22:29:43.672Z,19.38
2018-07-06T22:32:12.114Z,19.42
2018-07-06T22:34:40.576Z,19.38
2018-07-06T22:37:09.017Z,19.33
2018-07-06T22:39:37.511Z,19.25
2018-07-06T22:42:06.109Z,19.22
2018-07-06T22:44:34.549Z,19.25
2018-07-06T22:47:03.011Z,19.27
2018-07-06T22:49:31.434Z,19.29
2018-07-06T22:51:59.941Z,19.25
2018-07-06T22:54:28.345Z,19.25
2018-07-06T22:56:56.769Z,19.16
2018-07-06T22:59:25.182Z,18.93
2018-07-06T23:01:53.590Z,18.98
2018-07-06T23:04:22.049Z,19.09
2018-07-06T23:06:50.461Z,19.17
2018-07-06T23:09:18.953Z,19.11
2018-07-06T23:11:47.413Z,19.19
2018-07-06T23:14:15.821Z,19.15
2018-07-06T23:16:44.277Z,19.18
2018-07-06T23:19:12.750Z,19.19
2018-07-06T23:21:41.230Z,19.20
2018-07-06T23:24:09.735Z,19.17
2018-07-06T23:26:38.194Z,19.08
2018-07-06T23:29:06.687Z,18.89
2018-07-06T23:31:35.123Z,18.90
2018-07-06T23:34:03.537Z,18.89
2018-07-06T23:36:31.943Z,18.96
2018-07-06T23:39:00.389Z,18.96
2018-07-06T23:41:28.868Z,18.92
2018-07-06T23:43:57.404Z,18.90
2018-07-06T23:46:25.841Z,18.86
2018-07-06T23:48:54.339Z,18.89
2018-07-06T23:51:22.852Z,18.88
2018-07-06T23:53:51.334Z,18.89
2018-07-06T23:56:19.744Z,18.88
2018-07-06T23:58:48.172Z,18.80
